Sudbury Airport
CYSB : now visible

Airfield :











YOU CAN JOIN US ON...

 
LOGIN :

Register | Disclaimer

   EN    FR    IT 

 









Legend :    VFR   Marginal VFR   IFR   Intensive IFR   Very Intensive IFR
Visi :
Ceiling :
>= 8 km
>= 3000ft
5 to 8 km
1000 to 3000 ft
1500m to 5 km
500 to 1000 ft
800 to 1500m
200 to 500 ft
< 800m
< 200 ft
Symbols :   Thunderstorms  Fog  Heavy snow  Heavy precipitations  Wind > 20 kt






- Airport Elevation : 1141 ft
- IATA code : YSB


CYSB - Sudbury

CURRENT METAR :
  • 081900Z 25006KT 6SM BR OVC008 04/04 A2957 RMK SC8 SLP028

EXPIRED METARs :
  • 081841Z 25004KT 3SM BR OVC006 04/04 A2957 RMK SC8 SLP029
  • 081800Z 22006KT 3/4SM R22/5500FT/U BR OVC002 03/03 A2958 RMK SF8 SLP031
  • 081716Z 18006KT 3/4SM R22/6000FT/N BR OVC002 03/03 A2958 RMK SF8 SLP030
  • 081700Z 16007KT 1 3/4SM BR OVC003 03/03 A2957 RMK SF8 SLP029
  • 081622Z 17006KT 2 1/2SM BR OVC004 03/03 A2959 RMK SF8 SLP035

TAF AMD TAF CYSB
Valid from the 08 at 17:00 until the 09 at 02:00 UTC


081709Z 0817/0902 16007KT 13/4SM -DZ BR OVC003
TEMPO 0817/0820 6SM BR OVC008
FM082000 24008KT P6SM SCT006 OVC015
TEMPO 0820/0822 5SM -DZ BR BKN008 OVC015
FM082200 23005KT P6SM OVC015 RMK NXT FCST BY 082000Z



MET'MAP, your aeronautical weather chart ! - Copyright ORBIFLY December 2007 - Disclaimer

ORBIFLY MET'MAP TEAM :

Programming & Development : Alexandra Zaïnal
Concept & original design : Baudouin d'Aumeries
Assistance for programming : Marc-Olivier Méhu
Technical & hardware support : Manuel Goepfert

Contact : metmap@orbifly.com




SOURCES & CREDITS :

   NOAA       Earth
Advisory